NCAR-RAP Real-Time Weather Data

Output produced by METARs form (08 May 2021  17:04 UTC)
found at http://weather.rap.ucar.edu/surface/
 
KBZN 081650Z 31015G31KT 1SM -SN BKN027 BKN043 OVC050 02/M03 A3002 RMK AO2 PK WND 26031/1642 RAB25E34SNB45 P0000
KBZN 081647Z 29016G31KT 1 3/4SM -SN BKN030 BKN043 OVC065 02/M04 A3002 RMK AO2 PK WND 26031/1642 RAB25E34SNB45 P0000 T00221039
KBZN 081556Z 27004KT 10SM SCT040 BKN055 OVC065 04/M03 A3001 RMK AO2 SLP173 T00391028
KBZN 081456Z 00000KT 10SM SCT070 04/M01 A3001 RMK AO2 SLP171 60001 T00391006 51008
KBZN 081356Z 18006KT 10SM FEW080 OVC100 02/01 A3001 RMK AO2 SNE16 SLP167 P0000 T00170006
KBZN 081315Z 23006KT 8SM -SN BKN034 OVC070 01/00 A3001 RMK AO2 P0000 T00110000
KBZN 081256Z 24006KT 4SM -SN BR SCT004 BKN019 OVC039 01/M01 A3001 RMK AO2 SNB16 SLP171 P0001 T00061006
KBZN 081254Z 25007KT 1SM -SN BR FEW004 SCT007 OVC019 01/M01 A3001 RMK AO2 SNB16 P0001
KBZN 081247Z 27008KT 1/2SM SN FG OVC007 01/M01 A3001 RMK AO2 SNB16 P0001 T00061006
KBZN 081236Z 26007KT 1 1/4SM -SN BR OVC005 01/M01 A3000 RMK AO2 SNB16 P0000 T00061006
KBZN 081230Z 27008KT 2SM -SN BR BKN005 OVC011 01/M01 A3000 RMK AO2 SNB16 P0000 T00061006
KBZN 081216Z 30004KT 7SM -SN BKN006 OVC055 01/00 A3000 RMK AO2 SNB16 P0000 T00060000
KBZN 081208Z 33005KT 9SM BKN004 BKN013 OVC055 01/00 A2999 RMK AO2 T00110000
KBZN 081203Z 29008KT 10SM SCT004 SCT013 OVC044 01/00 A2999 RMK AO2 T00110000
KBZN 081156Z 26008KT 9SM SCT004 BKN010 OVC042 01/00 A2999 RMK AO2 SNE55 SLP162 P0002 60011 70078 T00110000 10039 20006 53000
KBZN 081153Z AUTO 24006KT 8SM -SN BKN004 BKN009 OVC035 01/01 A2999 RMK AO2 P0002
KBZN 081145Z AUTO 23005KT 3SM -SN BR SCT004 OVC011 01/00 A2999 RMK AO2 P0002 T00060000
KBZN 081141Z AUTO 27005KT 2SM -SN BR SCT004 OVC009 01/00 A2999 RMK AO2 P0002 T00060000
KBZN 081058Z AUTO 24004KT 3SM -SN BR BKN008 OVC015 01/00 A2998 RMK AO2 P0000 T00110000
KBZN 081056Z AUTO 24003KT 2 1/2SM -SN BR SCT008 OVC017 01/00 A2998 RMK AO2 UPB29E33SNB33 SLP161 P0002 T00110000
KBZN 081045Z AUTO 25006KT 4SM -SN BR FEW006 OVC021 01/00 A2998 RMK AO2 UPB29E33SNB33 P0001 T00110000
KBZN 080956Z AUTO 23006KT 10SM FEW006 OVC060 02/01 A2998 RMK AO2 SNE12 SLP145 P0000 T00170011
KBZN 080856Z AUTO 31004KT 10SM -SN OVC031 01/01 A2998 RMK AO2 UPE09RAB09E12SNB12E50B56 SLP140 P0001 60007 T00110006 51000
KBZN 080852Z AUTO 31005KT 9SM FEW006 OVC033 01/01 A2998 RMK AO2 UPE09RAB09E12SNB12E50 P0001
KBZN 080839Z AUTO 32005KT 5SM -SN BR FEW006 OVC022 01/00 A2998 RMK AO2 UPE09RAB09E12SNB12 P0001 T00110000
KBZN 080823Z AUTO 31009KT 9SM -SN BKN008 OVC024 02/01 A2998 RMK AO2 UPE09RAB09E12SNB12 P0000 T00170006
KBZN 080756Z AUTO 33008KT 10SM UP BKN011 OVC022 03/01 A2999 RMK AO2 RAE29UPB41SNB29E41 SLP140 P0004 T00280011
KBZN 080656Z AUTO 30007KT 9SM -RA OVC021 03/02 A2998 RMK AO2 SLP136 P0002 T00330017 402220033
KBZN 080556Z 31012KT 10SM -RA FEW017 SCT023 OVC029 04/02 A2996 RMK AO2 SLP130 P0005 60040 T00390017 10100 20039 51022
KBZN 080456Z 32012KT 6SM RA BR OVC022 05/03 A2996 RMK AO2 SLP130 P0010 T00500028
KBZN 080409Z 33009KT 6SM -RA BR BKN025 OVC030 06/04 A2996 RMK AO2 P0003 T00610039
KBZN 080356Z 33010KT 4SM RA BR FEW012 OVC030 06/04 A2995 RMK AO2 SLP133 P0008 T00610039
KBZN 080315Z 34014G22KT 6SM -RA BR SCT028 OVC034 06/04 A2990 RMK AO2 P0002 T00610039